createdAt,value
2019-02-18T00:01:18.037Z,2.80
2019-02-18T00:03:47.965Z,2.53
2019-02-18T00:06:17.387Z,2.47
2019-02-18T00:08:50.447Z,2.80
2019-02-18T00:11:22.455Z,2.73
2019-02-18T00:13:52.545Z,2.67
2019-02-18T00:16:22.036Z,2.23
2019-02-18T00:18:54.158Z,2.40
2019-02-18T00:21:23.928Z,2.10
2019-02-18T00:23:55.308Z,2.60
2019-02-18T00:26:25.029Z,2.40
2019-02-18T00:28:55.655Z,2.33
2019-02-18T00:31:25.317Z,2.30
2019-02-18T00:33:57.427Z,3.00
2019-02-18T00:36:27.177Z,2.80
2019-02-18T00:38:56.699Z,2.57
2019-02-18T00:41:26.366Z,2.33
2019-02-18T00:43:55.726Z,2.80
2019-02-18T00:46:26.289Z,2.30
2019-02-18T00:48:57.180Z,2.30
2019-02-18T00:51:26.690Z,2.60
2019-02-18T00:53:56.582Z,2.17
2019-02-18T00:56:27.717Z,2.90
2019-02-18T00:58:57.395Z,2.63
2019-02-18T01:01:26.870Z,2.47
2019-02-18T01:03:56.199Z,2.40
2019-02-18T01:06:25.433Z,2.50
2019-02-18T01:08:54.504Z,2.70
2019-02-18T01:11:25.018Z,2.67
2019-02-18T01:13:55.186Z,2.83
2019-02-18T01:16:24.632Z,2.50
2019-02-18T01:18:57.661Z,2.67
2019-02-18T01:21:27.126Z,2.70
2019-02-18T01:23:56.529Z,2.50
2019-02-18T01:26:25.907Z,2.50
2019-02-18T01:28:55.226Z,2.40
2019-02-18T01:31:27.399Z,2.43
2019-02-18T01:33:56.797Z,2.60
2019-02-18T01:36:26.333Z,2.60
2019-02-18T01:39:10.583Z,2.37
2019-02-18T01:41:39.684Z,2.37
2019-02-18T01:44:09.380Z,2.43
2019-02-18T01:46:39.202Z,2.43
2019-02-18T01:49:09.713Z,2.20
2019-02-18T01:51:39.316Z,2.03
2019-02-18T01:54:10.979Z,1.80
2019-02-18T01:56:40.487Z,2.23
2019-02-18T01:59:10.225Z,2.63
2019-02-18T02:01:42.032Z,2.60
2019-02-18T02:04:11.681Z,2.50
2019-02-18T02:06:41.232Z,2.50
2019-02-18T02:09:13.163Z,2.20
2019-02-18T02:11:42.507Z,2.30
2019-02-18T02:14:12.727Z,2.23
2019-02-18T02:16:44.317Z,2.20
2019-02-18T02:19:15.246Z,2.60
2019-02-18T02:21:45.983Z,2.20
2019-02-18T02:24:16.081Z,2.83
2019-02-18T02:26:46.809Z,2.37
2019-02-18T02:29:18.078Z,2.37
2019-02-18T02:31:47.124Z,2.57
2019-02-18T02:34:16.506Z,2.53
2019-02-18T02:36:45.841Z,4.10
2019-02-18T02:39:15.410Z,2.97
2019-02-18T02:41:48.251Z,2.93
2019-02-18T02:44:18.110Z,3.33
2019-02-18T02:46:47.826Z,2.40
2019-02-18T02:49:17.523Z,2.83
2019-02-18T02:51:46.985Z,2.73
2019-02-18T02:54:16.719Z,2.70
2019-02-18T02:56:45.776Z,2.77
2019-02-18T02:59:15.325Z,3.23
2019-02-18T03:01:44.462Z,2.47
2019-02-18T03:04:14.065Z,2.73
2019-02-18T03:06:43.451Z,2.77
2019-02-18T03:09:13.443Z,2.80
2019-02-18T03:11:42.809Z,2.83
2019-02-18T03:14:14.641Z,2.80
2019-02-18T03:16:44.009Z,2.53
2019-02-18T03:19:13.672Z,2.77
2019-02-18T03:21:45.455Z,2.73
2019-02-18T03:24:17.327Z,2.50
2019-02-18T03:26:47.289Z,3.20
2019-02-18T03:29:53.865Z,2.73
2019-02-18T03:32:23.452Z,2.53
2019-02-18T03:34:53.750Z,3.37
2019-02-18T03:37:23.867Z,3.23
2019-02-18T03:39:53.177Z,3.33
2019-02-18T03:42:23.408Z,3.03
2019-02-18T03:44:53.221Z,2.93
2019-02-18T03:47:24.800Z,3.33
2019-02-18T03:49:54.792Z,2.90
2019-02-18T03:52:24.784Z,3.60
2019-02-18T03:54:54.252Z,3.17
2019-02-18T03:57:25.780Z,2.90
2019-02-18T03:59:55.770Z,3.37
2019-02-18T04:02:27.022Z,3.50
2019-02-18T04:04:57.325Z,3.30
2019-02-18T04:07:27.358Z,3.40
2019-02-18T04:09:56.465Z,3.60
2019-02-18T04:12:26.382Z,3.17
2019-02-18T04:14:56.597Z,3.57
2019-02-18T04:17:26.640Z,3.10
2019-02-18T04:19:56.542Z,3.30
2019-02-18T04:22:26.182Z,3.57
2019-02-18T04:24:56.350Z,3.20
2019-02-18T04:27:26.993Z,3.97
2019-02-18T04:29:56.180Z,3.33
2019-02-18T04:32:27.186Z,3.17
2019-02-18T04:34:56.757Z,3.70
2019-02-18T04:37:25.840Z,4.00
2019-02-18T04:39:55.377Z,3.60
2019-02-18T04:42:25.302Z,3.23
2019-02-18T04:44:55.301Z,3.57
2019-02-18T04:47:25.013Z,5.53
2019-02-18T04:49:54.631Z,2.80
2019-02-18T04:52:24.141Z,2.40
2019-02-18T04:54:55.787Z,2.67
2019-02-18T04:57:25.207Z,2.70
2019-02-18T04:59:55.137Z,4.20
2019-02-18T05:02:25.714Z,2.53
2019-02-18T05:04:55.135Z,2.77
2019-02-18T05:07:26.849Z,2.60
2019-02-18T05:09:57.181Z,3.53
2019-02-18T05:12:26.437Z,3.00
2019-02-18T05:14:55.605Z,3.17
2019-02-18T05:17:25.157Z,2.30
2019-02-18T05:19:54.818Z,1.93
2019-02-18T05:22:25.862Z,3.07
2019-02-18T05:24:55.601Z,2.40
2019-02-18T05:27:33.206Z,3.40
2019-02-18T05:30:00.876Z,3.00
2019-02-18T05:32:30.853Z,4.07
2019-02-18T05:35:00.504Z,4.03
2019-02-18T05:37:31.589Z,2.57
2019-02-18T05:40:00.850Z,2.60
2019-02-18T05:42:31.423Z,2.63
2019-02-18T05:45:01.152Z,2.40
2019-02-18T05:47:34.111Z,2.50
2019-02-18T05:50:03.562Z,3.23
2019-02-18T05:52:33.363Z,3.80
2019-02-18T05:55:02.683Z,4.17
2019-02-18T05:57:32.349Z,3.13
2019-02-18T06:00:06.049Z,2.23
2019-02-18T06:02:37.585Z,2.80
2019-02-18T06:05:07.811Z,3.43
2019-02-18T06:07:38.791Z,2.93
2019-02-18T06:10:10.771Z,3.07
2019-02-18T06:12:44.863Z,4.20
2019-02-18T06:15:15.384Z,3.67
2019-02-18T06:17:45.134Z,2.80
2019-02-18T06:20:17.844Z,4.00
2019-02-18T06:22:47.742Z,5.67
2019-02-18T06:25:17.492Z,4.43
2019-02-18T06:27:48.663Z,5.10
2019-02-18T06:30:20.599Z,4.53
2019-02-18T06:32:50.160Z,4.00
2019-02-18T06:35:20.028Z,4.30
2019-02-18T06:37:49.851Z,3.73
2019-02-18T06:40:19.363Z,6.23
2019-02-18T06:42:49.243Z,4.10
2019-02-18T06:45:40.317Z,5.43
2019-02-18T06:48:24.221Z,4.73
2019-02-18T06:50:55.695Z,5.80
2019-02-18T06:53:27.994Z,4.83
2019-02-18T06:55:58.683Z,4.20
2019-02-18T06:58:38.619Z,5.27
2019-02-18T07:01:27.174Z,4.67
2019-02-18T07:04:10.300Z,4.53
2019-02-18T07:06:55.174Z,17.90
2019-02-18T07:09:51.737Z,3.90
2019-02-18T07:12:28.868Z,3.37
2019-02-18T07:14:58.963Z,3.60
2019-02-18T07:17:29.342Z,3.03
2019-02-18T07:20:00.031Z,3.27
2019-02-18T07:23:24.854Z,3.67
2019-02-18T07:29:45.939Z,2.60
2019-02-18T07:32:12.809Z,3.53
2019-02-18T07:34:45.294Z,3.37
2019-02-18T07:37:14.741Z,6.00
2019-02-18T07:39:46.237Z,3.53
2019-02-18T07:42:15.959Z,4.83
2019-02-18T07:44:45.855Z,3.93
2019-02-18T07:47:15.654Z,3.93
2019-02-18T07:49:47.413Z,3.37
2019-02-18T07:52:17.206Z,3.13
2019-02-18T07:54:46.915Z,6.87
2019-02-18T07:57:16.830Z,3.53
2019-02-18T08:00:10.406Z,4.57
2019-02-18T08:02:40.418Z,4.53
2019-02-18T08:05:12.159Z,2.20
2019-02-18T08:07:42.102Z,2.17
2019-02-18T08:10:12.587Z,4.80
2019-02-18T08:12:46.671Z,4.37
2019-02-18T08:15:15.770Z,3.00
2019-02-18T08:17:45.601Z,2.67
2019-02-18T08:20:15.093Z,2.40
2019-02-18T08:22:45.612Z,2.80
2019-02-18T08:25:35.545Z,2.50
2019-02-18T08:28:04.799Z,2.20
2019-02-18T08:30:34.813Z,2.00
2019-02-18T08:33:04.392Z,3.10
2019-02-18T08:35:35.631Z,1.97
2019-02-18T08:38:05.028Z,1.97
2019-02-18T08:40:35.191Z,1.87
2019-02-18T08:43:15.106Z,3.33
2019-02-18T08:45:49.425Z,2.60
2019-02-18T08:48:19.310Z,2.00
2019-02-18T08:50:48.786Z,2.20
2019-02-18T08:53:18.469Z,2.23
2019-02-18T08:55:48.602Z,2.20
2019-02-18T08:58:19.894Z,1.83
2019-02-18T09:00:49.815Z,2.43
2019-02-18T09:03:19.053Z,2.60
2019-02-18T09:05:50.741Z,4.17
2019-02-18T09:08:22.817Z,4.07
2019-02-18T09:10:52.166Z,5.23
2019-02-18T09:13:21.443Z,10.03
2019-02-18T09:15:59.826Z,2.77
2019-02-18T09:18:21.808Z,3.30
2019-02-18T09:20:53.778Z,2.30
2019-02-18T09:23:41.301Z,2.80
2019-02-18T09:26:11.838Z,15.23
2019-02-18T09:28:41.927Z,5.13
2019-02-18T09:31:11.495Z,2.90
2019-02-18T09:33:43.514Z,7.57
2019-02-18T09:36:13.189Z,2.50
2019-02-18T09:38:45.875Z,3.27
2019-02-18T09:41:15.636Z,3.60
2019-02-18T09:43:45.208Z,4.30
2019-02-18T09:46:14.553Z,3.40
2019-02-18T09:48:48.125Z,3.15
2019-02-18T09:51:21.475Z,3.17
2019-02-18T09:53:52.963Z,3.20
2019-02-18T09:56:32.452Z,3.10
2019-02-18T09:59:02.528Z,5.00
2019-02-18T10:01:34.052Z,3.77
2019-02-18T10:04:05.089Z,2.70
2019-02-18T10:06:36.590Z,3.72
2019-02-18T10:09:10.595Z,3.00
2019-02-18T10:11:44.801Z,2.87
2019-02-18T10:14:15.919Z,4.50
2019-02-18T10:16:49.085Z,3.37
2019-02-18T10:19:19.338Z,3.00
2019-02-18T10:21:49.802Z,2.90
2019-02-18T10:24:23.486Z,2.75
2019-02-18T10:26:54.962Z,3.55
2019-02-18T10:29:28.071Z,3.00
2019-02-18T10:32:02.655Z,3.12
2019-02-18T10:34:34.878Z,2.47
2019-02-18T10:37:07.923Z,3.30
2019-02-18T10:39:37.915Z,3.40
2019-02-18T10:42:08.058Z,3.08
2019-02-18T10:44:42.002Z,3.72
2019-02-18T10:47:17.487Z,2.85
2019-02-18T10:49:50.747Z,2.90
2019-02-18T10:52:24.145Z,3.00
2019-02-18T10:54:57.283Z,2.83
2019-02-18T10:57:27.453Z,3.57
2019-02-18T10:59:59.787Z,3.00
2019-02-18T11:02:34.103Z,3.13
2019-02-18T11:05:05.286Z,2.83
2019-02-18T11:07:36.463Z,3.00
2019-02-18T11:10:14.464Z,3.50
2019-02-18T11:12:50.949Z,3.20
2019-02-18T11:15:21.190Z,3.47
2019-02-18T11:17:55.425Z,3.00
2019-02-18T11:20:27.630Z,3.33
2019-02-18T11:22:58.538Z,3.00
2019-02-18T11:25:32.579Z,2.60
2019-02-18T11:28:04.915Z,2.60
2019-02-18T11:30:36.201Z,3.20
2019-02-18T11:33:11.918Z,3.47
2019-02-18T11:35:44.330Z,2.60
2019-02-18T11:38:15.049Z,3.70
2019-02-18T11:40:47.332Z,3.33
2019-02-18T11:43:22.759Z,2.93
2019-02-18T11:45:54.292Z,3.47
2019-02-18T11:48:27.093Z,2.60
2019-02-18T11:50:57.212Z,3.10
2019-02-18T11:53:32.281Z,2.73
2019-02-18T11:56:06.849Z,2.90
2019-02-18T11:58:39.752Z,3.30
2019-02-18T12:01:09.683Z,3.50
2019-02-18T12:03:43.833Z,2.73
2019-02-18T12:06:16.079Z,2.60
2019-02-18T12:08:48.826Z,3.10
2019-02-18T12:11:20.901Z,2.50
2019-02-18T12:13:50.995Z,2.33
2019-02-18T12:16:24.191Z,2.57
2019-02-18T12:18:53.560Z,2.57
2019-02-18T12:21:23.086Z,4.87
2019-02-18T12:23:55.044Z,3.87
2019-02-18T12:26:25.970Z,4.43
2019-02-18T12:28:56.770Z,3.93
2019-02-18T12:31:26.395Z,3.57
2019-02-18T12:33:59.071Z,3.80
2019-02-18T12:36:28.732Z,3.90
2019-02-18T12:38:58.740Z,4.70
2019-02-18T12:41:28.058Z,4.30
2019-02-18T12:43:59.749Z,4.07
2019-02-18T12:46:29.978Z,4.00
2019-02-18T12:49:01.827Z,4.30
2019-02-18T12:51:31.879Z,4.13
2019-02-18T12:54:05.063Z,3.97
2019-02-18T12:56:34.311Z,4.20
2019-02-18T12:59:03.807Z,3.80
2019-02-18T13:01:34.002Z,4.40
2019-02-18T13:04:04.232Z,3.60
2019-02-18T13:06:35.847Z,3.67
2019-02-18T13:09:06.694Z,4.60
2019-02-18T13:11:39.894Z,3.90
2019-02-18T13:14:10.474Z,3.70
2019-02-18T13:16:42.352Z,3.37
2019-02-18T13:19:14.024Z,3.50
2019-02-18T13:21:44.053Z,4.33
2019-02-18T13:24:13.810Z,3.70
2019-02-18T13:26:44.130Z,3.20
2019-02-18T13:29:14.173Z,3.53
2019-02-18T13:31:43.333Z,3.30
2019-02-18T13:34:14.009Z,3.47
2019-02-18T13:36:44.682Z,3.13
2019-02-18T13:39:14.688Z,2.77
2019-02-18T13:41:43.742Z,2.80
2019-02-18T13:44:13.721Z,2.70
2019-02-18T13:46:44.865Z,2.50
2019-02-18T13:49:13.935Z,2.50
2019-02-18T13:51:43.334Z,2.57
2019-02-18T13:54:13.791Z,2.77
2019-02-18T13:56:43.721Z,2.30
2019-02-18T13:59:13.197Z,2.80
2019-02-18T14:01:42.675Z,3.47
2019-02-18T14:04:11.883Z,3.60
2019-02-18T14:06:41.664Z,3.63
2019-02-18T14:09:11.171Z,4.30
2019-02-18T14:11:41.136Z,4.80
2019-02-18T14:14:11.555Z,5.07
2019-02-18T14:16:41.258Z,4.83
2019-02-18T14:19:10.701Z,5.10
2019-02-18T14:21:39.811Z,5.33
2019-02-18T14:24:09.047Z,4.73
2019-02-18T14:26:38.469Z,5.87
2019-02-18T14:29:25.918Z,5.40
2019-02-18T14:32:05.949Z,5.50
2019-02-18T14:34:35.458Z,4.97
2019-02-18T14:37:04.826Z,4.63
2019-02-18T14:39:33.940Z,4.67
2019-02-18T14:42:03.066Z,4.80
2019-02-18T14:44:39.124Z,4.83
2019-02-18T14:47:10.742Z,3.77
2019-02-18T14:49:39.832Z,3.90
2019-02-18T14:52:09.442Z,3.50
2019-02-18T14:54:38.877Z,3.30
2019-02-18T14:57:09.478Z,3.43
2019-02-18T14:59:39.300Z,3.83
2019-02-18T15:02:10.406Z,3.70
2019-02-18T15:04:40.166Z,3.50
2019-02-18T15:07:09.820Z,2.90
2019-02-18T15:09:39.749Z,3.40
2019-02-18T15:12:10.359Z,2.70
2019-02-18T15:14:40.068Z,2.83
2019-02-18T15:17:09.161Z,2.80
2019-02-18T15:19:40.837Z,2.77
2019-02-18T15:22:12.898Z,2.87
2019-02-18T15:24:42.899Z,3.50
2019-02-18T15:27:12.879Z,2.97
2019-02-18T15:29:42.566Z,3.10
2019-02-18T15:32:12.429Z,3.10
2019-02-18T15:34:42.455Z,3.37
2019-02-18T15:37:12.335Z,3.50
2019-02-18T15:39:42.366Z,3.20
2019-02-18T15:42:12.001Z,3.40
2019-02-18T15:44:41.681Z,3.40
2019-02-18T15:47:10.863Z,3.40
2019-02-18T15:49:40.603Z,3.97
2019-02-18T15:52:11.409Z,4.27
2019-02-18T15:54:41.810Z,3.50
2019-02-18T15:57:11.829Z,3.33
2019-02-18T15:59:41.575Z,3.73
2019-02-18T16:02:10.925Z,3.20
2019-02-18T16:04:42.110Z,4.07
2019-02-18T16:07:11.782Z,3.83
2019-02-18T16:09:41.367Z,3.70
2019-02-18T16:12:10.381Z,4.13
2019-02-18T16:14:39.570Z,4.20
2019-02-18T16:17:08.776Z,3.73
2019-02-18T16:19:38.475Z,3.40
2019-02-18T16:22:08.104Z,3.40
2019-02-18T16:24:38.091Z,3.67
2019-02-18T16:27:08.241Z,3.67
2019-02-18T16:29:38.058Z,3.83
2019-02-18T16:32:07.505Z,3.93
2019-02-18T16:34:36.943Z,4.13
2019-02-18T16:37:06.675Z,4.03
2019-02-18T16:39:37.578Z,4.00
2019-02-18T16:42:07.200Z,4.20
2019-02-18T16:44:36.352Z,4.80
2019-02-18T16:47:06.121Z,4.70
2019-02-18T16:49:36.632Z,4.30
2019-02-18T16:52:06.683Z,3.77
2019-02-18T16:54:35.818Z,4.47
2019-02-18T16:57:05.166Z,4.63
2019-02-18T16:59:34.371Z,5.17
2019-02-18T17:02:04.490Z,5.03
2019-02-18T17:04:34.097Z,5.03
2019-02-18T17:07:04.457Z,4.63
2019-02-18T17:09:33.976Z,5.00
2019-02-18T17:12:03.159Z,5.30
2019-02-18T17:14:32.262Z,6.10
2019-02-18T17:17:02.802Z,5.73
2019-02-18T17:19:32.053Z,5.80
2019-02-18T17:22:06.420Z,7.23
2019-02-18T17:24:37.042Z,7.13
2019-02-18T17:27:07.337Z,6.77
2019-02-18T17:29:36.410Z,7.00
2019-02-18T17:32:07.673Z,7.40
2019-02-18T17:34:37.689Z,6.57
2019-02-18T17:37:08.678Z,7.57
2019-02-18T17:39:38.243Z,8.17
2019-02-18T17:42:07.431Z,7.90
2019-02-18T17:44:36.923Z,8.57
2019-02-18T17:47:06.650Z,8.63
2019-02-18T17:49:37.587Z,9.20
2019-02-18T17:52:07.396Z,7.53
2019-02-18T17:54:37.366Z,8.70
2019-02-18T17:57:07.078Z,8.57
2019-02-18T17:59:36.819Z,9.30
2019-02-18T18:02:05.990Z,8.63
2019-02-18T18:04:35.942Z,8.97
2019-02-18T18:07:08.500Z,9.03
2019-02-18T18:09:40.145Z,10.20
2019-02-18T18:12:34.118Z,8.60
2019-02-18T18:15:04.268Z,8.93
2019-02-18T18:17:36.152Z,8.80
2019-02-18T18:20:07.019Z,9.10
2019-02-18T18:22:37.415Z,9.30
2019-02-18T18:25:07.199Z,10.20
2019-02-18T18:27:44.816Z,8.27
2019-02-18T18:30:33.865Z,8.77
2019-02-18T18:33:25.081Z,9.40
2019-02-18T18:36:00.179Z,9.73
2019-02-18T18:38:30.168Z,9.33
2019-02-18T18:40:59.315Z,9.43
2019-02-18T18:43:33.752Z,9.30
2019-02-18T18:46:01.473Z,9.60
2019-02-18T18:48:32.197Z,9.50
2019-02-18T18:51:01.774Z,10.23
2019-02-18T18:53:34.291Z,10.30
2019-02-18T18:56:13.486Z,9.63
2019-02-18T18:59:04.283Z,10.93
2019-02-18T19:01:47.973Z,10.07
2019-02-18T19:04:54.355Z,13.00
2019-02-18T19:07:26.667Z,11.50
2019-02-18T19:09:57.295Z,11.20
2019-02-18T19:12:28.564Z,10.10
2019-02-18T19:14:59.688Z,11.20
2019-02-18T19:17:28.953Z,10.40
2019-02-18T19:19:59.078Z,11.13
2019-02-18T19:22:54.455Z,10.87
2019-02-18T19:25:24.007Z,10.80
2019-02-18T19:27:54.800Z,11.97
2019-02-18T19:30:30.500Z,10.03
2019-02-18T19:33:01.323Z,11.50
2019-02-18T19:35:46.988Z,11.93
2019-02-18T19:38:31.017Z,12.07
2019-02-18T19:41:06.115Z,11.03
2019-02-18T19:43:50.050Z,12.07
2019-02-18T19:46:13.409Z,11.17
2019-02-18T19:48:45.779Z,11.27
2019-02-18T19:51:15.337Z,11.23
2019-02-18T19:53:51.870Z,9.50
2019-02-18T19:56:37.836Z,9.57
2019-02-18T19:59:06.450Z,8.77
2019-02-18T20:01:39.826Z,7.77
2019-02-18T20:04:11.260Z,8.00
2019-02-18T20:06:41.873Z,7.80
2019-02-18T20:09:15.835Z,8.40
2019-02-18T20:11:46.522Z,8.40
2019-02-18T20:14:27.687Z,8.97
2019-02-18T20:16:58.031Z,8.07
2019-02-18T20:19:37.157Z,8.67
2019-02-18T20:22:12.450Z,9.70
2019-02-18T20:24:42.127Z,10.60
2019-02-18T20:27:12.351Z,8.57
2019-02-18T20:29:42.034Z,9.93
2019-02-18T20:32:16.579Z,9.43
2019-02-18T20:34:46.692Z,9.10
2019-02-18T20:37:17.039Z,8.43
2019-02-18T20:39:46.945Z,8.73
2019-02-18T20:42:20.185Z,10.53
2019-02-18T20:44:49.478Z,8.97
2019-02-18T20:47:24.380Z,10.40
2019-02-18T20:49:54.717Z,12.07
2019-02-18T20:52:24.204Z,10.50
2019-02-18T20:54:54.335Z,10.07
2019-02-18T20:57:28.482Z,9.67
2019-02-18T20:59:58.068Z,10.17
2019-02-18T21:02:31.554Z,10.93
2019-02-18T21:05:01.286Z,10.10
2019-02-18T21:07:31.642Z,9.73
2019-02-18T21:10:03.136Z,9.20
2019-02-18T21:12:34.814Z,8.77
2019-02-18T21:15:09.180Z,8.97
2019-02-18T21:17:39.449Z,8.07
2019-02-18T21:20:11.308Z,8.53
2019-02-18T21:22:40.966Z,9.67
2019-02-18T21:25:14.676Z,10.37
2019-02-18T21:27:45.399Z,9.27
2019-02-18T21:30:15.527Z,7.60
2019-02-18T21:32:45.787Z,8.93
2019-02-18T21:35:15.698Z,8.40
2019-02-18T21:37:49.826Z,8.37
2019-02-18T21:40:20.819Z,10.03
2019-02-18T21:42:51.467Z,10.97
2019-02-18T21:45:21.136Z,10.87
2019-02-18T21:47:52.070Z,9.13
2019-02-18T21:50:25.333Z,10.37
2019-02-18T21:52:55.225Z,8.80
2019-02-18T21:55:24.767Z,10.90
2019-02-18T21:57:57.025Z,10.70
2019-02-18T22:00:27.040Z,9.57
2019-02-18T22:03:01.299Z,10.33
2019-02-18T22:05:31.611Z,8.53
2019-02-18T22:08:08.622Z,7.47
2019-02-18T22:10:39.509Z,7.70
2019-02-18T22:13:09.320Z,7.63
2019-02-18T22:15:40.911Z,7.03
2019-02-18T22:18:12.628Z,7.43
2019-02-18T22:20:45.001Z,6.60
2019-02-18T22:23:14.392Z,11.13
2019-02-18T22:25:45.671Z,9.70
2019-02-18T22:28:15.111Z,10.07
2019-02-18T22:30:47.533Z,6.60
2019-02-18T22:33:17.405Z,6.07
2019-02-18T22:35:47.134Z,6.53
2019-02-18T22:38:18.998Z,6.40
2019-02-18T22:40:48.228Z,5.43
2019-02-18T22:43:18.292Z,5.20
2019-02-18T22:45:48.961Z,5.70
2019-02-18T22:48:18.337Z,5.07
2019-02-18T22:50:48.861Z,6.33
2019-02-18T22:53:20.119Z,5.57
2019-02-18T22:55:49.329Z,4.57
2019-02-18T22:58:21.846Z,4.47
2019-02-18T23:01:02.145Z,4.60
2019-02-18T23:03:32.105Z,5.30
2019-02-18T23:06:01.506Z,4.50
2019-02-18T23:08:31.160Z,3.80
2019-02-18T23:11:01.486Z,4.23
2019-02-18T23:13:31.029Z,4.80
2019-02-18T23:16:00.703Z,4.00
2019-02-18T23:18:30.146Z,4.50
2019-02-18T23:21:00.737Z,4.30
2019-02-18T23:23:30.642Z,4.33
2019-02-18T23:26:02.086Z,4.30
2019-02-18T23:28:31.240Z,4.53
2019-02-18T23:31:02.547Z,4.23
2019-02-18T23:33:31.791Z,4.37
2019-02-18T23:36:02.097Z,4.20
2019-02-18T23:38:32.042Z,4.17
2019-02-18T23:41:01.238Z,3.90
2019-02-18T23:43:30.352Z,4.00
2019-02-18T23:46:00.276Z,3.67
2019-02-18T23:48:30.980Z,3.90
2019-02-18T23:51:00.677Z,3.67
2019-02-18T23:53:30.094Z,3.90
2019-02-18T23:55:59.801Z,3.70
2019-02-18T23:58:29.197Z,4.03
